sensor_id;sensor_type;location;lat;lon;timestamp;pressure;altitude;pressure_sealevel;temperature;humidity
3590;BME280;1809;48.470;9.226;2023-02-11T00:01:45;80821.69;;;-2.99;100.00
3590;BME280;1809;48.470;9.226;2023-02-11T00:04:11;82487.78;;;-2.99;100.00
3590;BME280;1809;48.470;9.226;2023-02-11T00:06:36;82806.16;;;-3.10;100.00
3590;BME280;1809;48.470;9.226;2023-02-11T00:09:02;85144.25;;;-3.08;100.00
3590;BME280;1809;48.470;9.226;2023-02-11T00:11:28;86812.16;;;-3.08;100.00
3590;BME280;1809;48.470;9.226;2023-02-11T00:13:55;87818.06;;;-3.05;100.00
3590;BME280;1809;48.470;9.226;2023-02-11T00:16:21;88157.81;;;-3.01;100.00
3590;BME280;1809;48.470;9.226;2023-02-11T00:18:47;87498.63;;;-2.95;100.00
3590;BME280;1809;48.470;9.226;2023-02-11T00:21:15;84165.75;;;-2.92;100.00
3590;BME280;1809;48.470;9.226;2023-02-11T00:23:41;80810.34;;;-3.07;100.00
3590;BME280;1809;48.470;9.226;2023-02-11T00:26:22;79472.47;;;-3.11;100.00
3590;BME280;1809;48.470;9.226;2023-02-11T00:28:48;79467.88;;;-3.15;100.00
3590;BME280;1809;48.470;9.226;2023-02-11T00:31:15;79793.66;;;-3.20;100.00
3590;BME280;1809;48.470;9.226;2023-02-11T00:33:42;80783.66;;;-3.28;100.00
3590;BME280;1809;48.470;9.226;2023-02-11T00:36:11;82784.22;;;-3.27;100.00
3590;BME280;1809;48.470;9.226;2023-02-11T00:38:37;85116.81;;;-3.28;100.00
3590;BME280;1809;48.470;9.226;2023-02-11T00:41:03;86439.72;;;-3.36;100.00
3590;BME280;1809;48.470;9.226;2023-02-11T00:43:28;89792.34;;;-3.26;100.00
3590;BME280;1809;48.470;9.226;2023-02-11T00:45:53;92140.25;;;-3.19;100.00
3590;BME280;1809;48.470;9.226;2023-02-11T00:48:19;93820.44;;;-3.14;100.00
3590;BME280;1809;48.470;9.226;2023-02-11T00:50:44;94816.88;;;-3.18;100.00
3590;BME280;1809;48.470;9.226;2023-02-11T00:53:10;95818.16;;;-3.20;100.00
3590;BME280;1809;48.470;9.226;2023-02-11T00:55:35;97167.31;;;-3.13;100.00
3590;BME280;1809;48.470;9.226;2023-02-11T00:58:00;97845.06;;;-3.08;100.00
3590;BME280;1809;48.470;9.226;2023-02-11T01:00:26;98853.91;;;-3.06;100.00
3590;BME280;1809;48.470;9.226;2023-02-11T01:02:52;99524.75;;;-3.05;100.00
3590;BME280;1809;48.470;9.226;2023-02-11T01:05:18;99859.81;;;-3.05;100.00
3590;BME280;1809;48.470;9.226;2023-02-11T01:07:43;100206.50;;;-2.98;100.00
3590;BME280;1809;48.470;9.226;2023-02-11T01:10:09;99854.81;;;-3.08;100.00
3590;BME280;1809;48.470;9.226;2023-02-11T01:12:35;99848.19;;;-3.12;100.00
3590;BME280;1809;48.470;9.226;2023-02-11T01:15:00;99833.25;;;-3.21;100.00
3590;BME280;1809;48.470;9.226;2023-02-11T01:17:25;100165.75;;;-3.23;100.00
3590;BME280;1809;48.470;9.226;2023-02-11T01:19:51;100151.63;;;-3.32;100.00
3590;BME280;1809;48.470;9.226;2023-02-11T01:22:16;100479.91;;;-3.36;100.00
3590;BME280;1809;48.470;9.226;2023-02-11T01:24:41;101154.09;;;-3.33;100.00
3590;BME280;1809;48.470;9.226;2023-02-11T01:27:07;101825.09;;;-3.33;100.00
3590;BME280;1809;48.470;9.226;2023-02-11T01:29:32;102835.72;;;-3.30;100.00
3590;BME280;1809;48.470;9.226;2023-02-11T01:31:59;102832.31;;;-3.32;100.00
3590;BME280;1809;48.470;9.226;2023-02-11T01:34:24;102150.06;;;-3.39;100.00
3590;BME280;1809;48.470;9.226;2023-02-11T01:36:49;102481.78;;;-3.41;100.00
3590;BME280;1809;48.470;9.226;2023-02-11T01:39:15;102160.22;;;-3.33;100.00
3590;BME280;1809;48.470;9.226;2023-02-11T01:41:40;102194.22;;;-3.12;100.00
3590;BME280;1809;48.470;9.226;2023-02-11T01:46:52;98830.06;;;-3.20;100.00
3590;BME280;1809;48.470;9.226;2023-02-11T01:49:24;97494.03;;;-3.18;100.00
3590;BME280;1809;48.470;9.226;2023-02-11T01:51:57;94826.31;;;-3.12;100.00
3590;BME280;1809;48.470;9.226;2023-02-11T01:54:28;92146.34;;;-3.15;100.00
3590;BME280;1809;48.470;9.226;2023-02-11T01:57:15;89815.41;;;-3.10;100.00
3590;BME280;1809;48.470;9.226;2023-02-11T02:02:42;81820.97;;;-2.99;100.00
3590;BME280;1809;48.470;9.226;2023-02-11T02:10:45;71504.53;;;-2.97;100.00
3590;BME280;1809;48.470;9.226;2023-02-11T02:13:11;68836.34;;;-3.06;100.00
3590;BME280;1809;48.470;9.226;2023-02-11T02:15:39;68167.22;;;-3.11;100.00
3590;BME280;1809;48.470;9.226;2023-02-11T02:26:25;71468.03;;;-3.29;100.00
3590;BME280;1809;48.470;9.226;2023-02-11T02:35:00;77763.84;;;-3.46;100.00
3590;BME280;1809;48.470;9.226;2023-02-11T02:37:50;80426.63;;;-3.46;100.00
3590;BME280;1809;48.470;9.226;2023-02-11T02:40:27;81417.59;;;-3.52;100.00
3590;BME280;1809;48.470;9.226;2023-02-11T02:42:54;83083.19;;;-3.52;100.00
3590;BME280;1809;48.470;9.226;2023-02-11T02:45:20;85081.59;;;-3.53;100.00
3590;BME280;1809;48.470;9.226;2023-02-11T02:47:46;86070.50;;;-3.61;100.00
3590;BME280;1809;48.470;9.226;2023-02-11T02:50:13;88077.56;;;-3.57;100.00
3590;BME280;1809;48.470;9.226;2023-02-11T02:55:49;90402.72;;;-3.64;100.00
3590;BME280;1809;48.470;9.226;2023-02-11T03:01:36;94078.41;;;-3.63;100.00
3590;BME280;1809;48.470;9.226;2023-02-11T03:04:13;95413.91;;;-3.64;100.00
3590;BME280;1809;48.470;9.226;2023-02-11T03:06:48;96419.41;;;-3.63;100.00
3590;BME280;1809;48.470;9.226;2023-02-11T03:11:48;99128.78;;;-3.43;100.00
3590;BME280;1809;48.470;9.226;2023-02-11T03:14:16;99478.47;;;-3.34;100.00
3590;BME280;1809;48.470;9.226;2023-02-11T03:16:43;99160.06;;;-3.23;100.00
3590;BME280;1809;48.470;9.226;2023-02-11T03:19:15;97498.88;;;-3.15;100.00
3590;BME280;1809;48.470;9.226;2023-02-11T03:21:43;95160.06;;;-3.13;100.00
3590;BME280;1809;48.470;9.226;2023-02-11T03:24:14;92825.75;;;-3.08;100.00
3590;BME280;1809;48.470;9.226;2023-02-11T03:26:49;91140.63;;;-3.17;100.00
3590;BME280;1809;48.470;9.226;2023-02-11T03:32:07;90121.88;;;-3.29;100.00
3590;BME280;1809;48.470;9.226;2023-02-11T03:34:56;91127.81;;;-3.26;100.00
3590;BME280;1809;48.470;9.226;2023-02-11T03:37:28;92496.00;;;-3.05;100.00
3590;BME280;1809;48.470;9.226;2023-02-11T03:40:04;90160.72;;;-3.02;100.00
3590;BME280;1809;48.470;9.226;2023-02-11T03:42:42;88158.53;;;-3.01;100.00
3590;BME280;1809;48.470;9.226;2023-02-11T03:45:12;86827.94;;;-2.97;100.00
3590;BME280;1809;48.470;9.226;2023-02-11T03:47:44;84490.31;;;-2.98;100.00
3590;BME280;1809;48.470;9.226;2023-02-11T03:50:11;83480.59;;;-3.05;100.00
3590;BME280;1809;48.470;9.226;2023-02-11T03:52:39;83155.34;;;-2.99;100.00
3590;BME280;1809;48.470;9.226;2023-02-11T03:55:08;82819.16;;;-3.01;100.00
3590;BME280;1809;48.470;9.226;2023-02-11T03:57:35;81814.88;;;-3.04;100.00
3590;BME280;1809;48.470;9.226;2023-02-11T04:00:01;81480.19;;;-3.05;100.00
3590;BME280;1809;48.470;9.226;2023-02-11T04:02:29;81142.91;;;-3.08;100.00
3590;BME280;1809;48.470;9.226;2023-02-11T04:04:56;80470.50;;;-3.12;100.00
3590;BME280;1809;48.470;9.226;2023-02-11T04:07:22;80463.19;;;-3.18;100.00
3590;BME280;1809;48.470;9.226;2023-02-11T04:09:48;80788.31;;;-3.24;100.00
3590;BME280;1809;48.470;9.226;2023-02-11T04:12:13;81780.41;;;-3.30;100.00
3590;BME280;1809;48.470;9.226;2023-02-11T04:14:39;83452.31;;;-3.26;100.00
3590;BME280;1809;48.470;9.226;2023-02-11T04:17:04;84109.38;;;-3.33;100.00
3590;BME280;1809;48.470;9.226;2023-02-11T04:19:30;85786.75;;;-3.26;100.00
3590;BME280;1809;48.470;9.226;2023-02-11T04:21:55;87130.09;;;-3.19;100.00
3590;BME280;1809;48.470;9.226;2023-02-11T04:24:21;88811.81;;;-3.11;100.00
3590;BME280;1809;48.470;9.226;2023-02-11T04:26:46;88491.03;;;-3.02;100.00
3590;BME280;1809;48.470;9.226;2023-02-11T04:29:12;87495.72;;;-2.97;100.00
3590;BME280;1809;48.470;9.226;2023-02-11T04:31:37;86496.97;;;-2.95;100.00
3590;BME280;1809;48.470;9.226;2023-02-11T04:34:02;84826.78;;;-2.96;100.00
3590;BME280;1809;48.470;9.226;2023-02-11T04:36:28;84829.56;;;-2.94;100.00
3590;BME280;1809;48.470;9.226;2023-02-11T04:38:53;84843.63;;;-2.84;100.00
3590;BME280;1809;48.470;9.226;2023-02-11T04:41:18;84537.81;;;-2.64;100.00
3590;BME280;1809;48.470;9.226;2023-02-11T04:43:43;81557.66;;;-2.47;100.00
3590;BME280;1809;48.470;9.226;2023-02-11T04:46:09;78562.81;;;-2.42;100.00
3590;BME280;1809;48.470;9.226;2023-02-11T04:48:34;75909.47;;;-2.32;100.00
3590;BME280;1809;48.470;9.226;2023-02-11T04:51:00;73247.63;;;-2.30;100.00
3590;BME280;1809;48.470;9.226;2023-02-11T04:53:26;71588.78;;;-2.25;100.00
3590;BME280;1809;48.470;9.226;2023-02-11T04:55:51;68938.94;;;-2.15;100.00
3590;BME280;1809;48.470;9.226;2023-02-11T04:58:18;64939.72;;;-2.25;100.00
3590;BME280;1809;48.470;9.226;2023-02-11T05:00:44;63274.25;;;-2.30;100.00
3590;BME280;1809;48.470;9.226;2023-02-11T05:03:10;62934.59;;;-2.38;100.00
3590;BME280;1809;48.470;9.226;2023-02-11T05:05:39;63925.09;;;-2.43;100.00
3590;BME280;1809;48.470;9.226;2023-02-11T05:08:06;65918.34;;;-2.42;100.00
3590;BME280;1809;48.470;9.226;2023-02-11T05:10:32;67585.00;;;-2.37;100.00
3590;BME280;1809;48.470;9.226;2023-02-11T05:12:57;69248.72;;;-2.35;100.00
3590;BME280;1809;48.470;9.226;2023-02-11T05:15:22;70585.34;;;-2.30;100.00
3590;BME280;1809;48.470;9.226;2023-02-11T05:17:48;71594.06;;;-2.21;100.00
3590;BME280;1809;48.470;9.226;2023-02-11T05:20:14;72274.00;;;-2.08;100.00
3590;BME280;1809;48.470;9.226;2023-02-11T05:22:39;72278.78;;;-2.04;100.00
3590;BME280;1809;48.470;9.226;2023-02-11T05:25:05;72621.91;;;-1.96;100.00
3590;BME280;1809;48.470;9.226;2023-02-11T05:27:30;72954.97;;;-1.96;100.00
3590;BME280;1809;48.470;9.226;2023-02-11T05:29:56;73630.25;;;-1.88;100.00
3590;BME280;1809;48.470;9.226;2023-02-11T05:32:21;73299.50;;;-1.86;100.00
3590;BME280;1809;48.470;9.226;2023-02-11T05:34:47;73300.72;;;-1.85;100.00
3590;BME280;1809;48.470;9.226;2023-02-11T05:37:12;73980.50;;;-1.74;100.00
3590;BME280;1809;48.470;9.226;2023-02-11T05:39:37;72979.00;;;-1.76;100.00
3590;BME280;1809;48.470;9.226;2023-02-11T05:42:03;71982.56;;;-1.73;100.00
3590;BME280;1809;48.470;9.226;2023-02-11T05:44:28;71658.91;;;-1.65;100.00
3590;BME280;1809;48.470;9.226;2023-02-11T05:46:54;70996.28;;;-1.62;100.00
3590;BME280;1809;48.470;9.226;2023-02-11T05:49:19;70663.78;;;-1.62;100.00
3590;BME280;1809;48.470;9.226;2023-02-11T05:51:44;69338.19;;;-1.56;100.00
3590;BME280;1809;48.470;9.226;2023-02-11T05:54:10;68351.31;;;-1.45;100.00
3590;BME280;1809;48.470;9.226;2023-02-11T05:56:35;66356.19;;;-1.44;100.00
3590;BME280;1809;48.470;9.226;2023-02-11T05:59:00;63691.34;;;-1.48;100.00
3590;BME280;1809;48.470;9.226;2023-02-11T06:01:26;63026.56;;;-1.48;100.00
3590;BME280;1809;48.470;9.226;2023-02-11T06:03:51;64029.03;;;-1.43;100.00
3590;BME280;1809;48.470;9.226;2023-02-11T06:06:17;63698.16;;;-1.41;100.00
3590;BME280;1809;48.470;9.226;2023-02-11T06:08:42;64368.94;;;-1.36;100.00
3590;BME280;1809;48.470;9.226;2023-02-11T06:11:08;65376.97;;;-1.26;100.00
3590;BME280;1809;48.470;9.226;2023-02-11T06:13:34;65379.66;;;-1.24;100.00
3590;BME280;1809;48.470;9.226;2023-02-11T06:16:00;65714.56;;;-1.22;100.00
3590;BME280;1809;48.470;9.226;2023-02-11T06:18:26;66062.50;;;-1.08;100.00
3590;BME280;1809;48.470;9.226;2023-02-11T06:20:52;61076.00;;;-1.04;100.00
3590;BME280;1809;48.470;9.226;2023-02-11T06:23:17;57084.31;;;-1.10;100.00
3590;BME280;1809;48.470;9.226;2023-02-11T06:25:45;55750.69;;;-1.17;100.00
3590;BME280;1809;48.470;9.226;2023-02-11T06:28:11;57744.09;;;-1.15;100.00
3590;BME280;1809;48.470;9.226;2023-02-11T06:30:37;60413.22;;;-1.02;100.00
3590;BME280;1809;48.470;9.226;2023-02-11T06:33:03;60079.91;;;-1.03;100.00
3590;BME280;1809;48.470;9.226;2023-02-11T06:35:28;61079.50;;;-1.01;100.00
3590;BME280;1809;48.470;9.226;2023-02-11T06:37:53;60088.75;;;-0.94;100.00
3590;BME280;1809;48.470;9.226;2023-02-11T06:40:19;57111.84;;;-0.80;100.00
3590;BME280;1809;48.470;9.226;2023-02-11T06:42:44;51805.38;;;-0.76;100.00
3590;BME280;1809;48.470;9.226;2023-02-11T06:45:10;49145.56;;;-0.85;100.00
3590;BME280;1809;48.470;9.226;2023-02-11T06:47:38;49815.22;;;-0.77;100.00
3590;BME280;1809;48.470;9.226;2023-02-11T06:50:05;50145.47;;;-0.78;100.00
3590;BME280;1809;48.470;9.226;2023-02-11T06:52:32;50146.28;;;-0.77;100.00
3590;BME280;1809;48.470;9.226;2023-02-11T06:54:57;49159.16;;;-0.68;100.00
3590;BME280;1809;48.470;9.226;2023-02-11T06:57:23;49486.19;;;-0.74;100.00
3590;BME280;1809;48.470;9.226;2023-02-11T06:59:48;51475.00;;;-0.74;100.00
3590;BME280;1809;48.470;9.226;2023-02-11T07:02:14;53799.84;;;-0.71;100.00
3590;BME280;1809;48.470;9.226;2023-02-11T07:04:39;55795.34;;;-0.67;100.00
3590;BME280;1809;48.470;9.226;2023-02-11T07:07:04;57460.91;;;-0.62;100.00
3590;BME280;1809;48.470;9.226;2023-02-11T07:09:30;58799.00;;;-0.53;100.00
3590;BME280;1809;48.470;9.226;2023-02-11T07:11:55;58807.16;;;-0.44;100.00
3590;BME280;1809;48.470;9.226;2023-02-11T07:14:21;58153.16;;;-0.33;100.00
3590;BME280;1809;48.470;9.226;2023-02-11T07:16:46;54503.72;;;-0.26;100.00
3590;BME280;1809;48.470;9.226;2023-02-11T07:19:11;49861.50;;;-0.19;100.00
3590;BME280;1809;48.470;9.226;2023-02-11T07:21:37;46546.16;;;-0.18;100.00
3590;BME280;1809;48.470;9.226;2023-02-11T07:24:06;39259.84;;;-0.22;100.00
3590;BME280;1809;48.470;9.226;2023-02-11T07:26:32;39576.50;;;-0.44;100.00
3590;BME280;1809;48.470;9.226;2023-02-11T07:28:57;44207.75;;;-0.45;100.00
3590;BME280;1809;48.470;9.226;2023-02-11T07:31:25;48524.78;;;-0.32;100.00
3590;BME280;1809;48.470;9.226;2023-02-11T07:33:53;47534.09;;;-0.27;100.00
3590;BME280;1809;48.470;9.226;2023-02-11T07:36:20;48203.81;;;-0.18;100.00
3590;BME280;1809;48.470;9.226;2023-02-11T07:38:45;47221.03;;;-0.03;100.00
3590;BME280;1809;48.470;9.226;2023-02-11T07:41:13;45902.69;;;0.08;100.00
3590;BME280;1809;48.470;9.226;2023-02-11T07:43:39;40281.16;;;0.23;100.00
3590;BME280;1809;48.470;9.226;2023-02-11T07:46:07;38624.09;;;0.20;100.00
3590;BME280;1809;48.470;9.226;2023-02-11T07:48:32;37637.06;;;0.29;100.00
3590;BME280;1809;48.470;9.226;2023-02-11T07:51:20;33017.69;;;0.46;100.00
3590;BME280;1809;48.470;9.226;2023-02-11T07:53:46;29056.53;;;0.50;100.00
3590;BME280;1809;48.470;9.226;2023-02-11T07:56:13;26420.81;;;0.60;100.00
3590;BME280;1809;48.470;9.226;2023-02-11T07:58:39;29397.72;;;0.74;100.00
3590;BME280;1809;48.470;9.226;2023-02-11T08:01:10;28746.47;;;0.94;100.00
3590;BME280;1809;48.470;9.226;2023-02-11T08:03:37;22483.88;;;1.15;100.00
3590;BME280;1809;48.470;9.226;2023-02-11T08:06:11;-4450.50;;;1.28;100.00
3590;BME280;1809;48.470;9.226;2023-02-11T08:08:37;-16205.94;;;1.33;100.00
3590;BME280;1809;48.470;9.226;2023-02-11T08:11:07;-16203.66;;;1.25;100.00
3590;BME280;1809;48.470;9.226;2023-02-11T08:13:34;-16203.66;;;1.25;100.00
3590;BME280;1809;48.470;9.226;2023-02-11T08:15:59;-16200.28;;;1.13;100.00
3590;BME280;1809;48.470;9.226;2023-02-11T08:18:25;-16200.28;;;1.13;100.00
3590;BME280;1809;48.470;9.226;2023-02-11T08:20:50;-16203.09;;;1.23;100.00
3590;BME280;1809;48.470;9.226;2023-02-11T08:23:15;-16200.16;;;1.12;100.00
3590;BME280;1809;48.470;9.226;2023-02-11T08:25:41;-16193.25;;;0.87;100.00
3590;BME280;1809;48.470;9.226;2023-02-11T08:28:09;-16196.19;;;0.98;100.00
3590;BME280;1809;48.470;9.226;2023-02-11T08:30:34;-16194.50;;;0.92;100.00
3590;BME280;1809;48.470;9.226;2023-02-11T08:33:00;-14208.81;;;0.80;100.00
3590;BME280;1809;48.470;9.226;2023-02-11T08:35:25;-3794.69;;;1.11;100.00
3590;BME280;1809;48.470;9.226;2023-02-11T08:37:51;-10985.53;;;1.18;100.00
3590;BME280;1809;48.470;9.226;2023-02-11T08:40:17;-16205.09;;;1.30;100.00
3590;BME280;1809;48.470;9.226;2023-02-11T08:42:42;-16203.66;;;1.25;100.00
3590;BME280;1809;48.470;9.226;2023-02-11T08:45:08;-16214.94;;;1.65;100.00
3590;BME280;1809;48.470;9.226;2023-02-11T08:47:35;-16229.03;;;2.15;100.00
3590;BME280;1809;48.470;9.226;2023-02-11T08:50:00;-16240.03;;;2.55;100.00
3590;BME280;1809;48.470;9.226;2023-02-11T08:52:25;-16245.66;;;2.75;100.00
3590;BME280;1809;48.470;9.226;2023-02-11T08:54:51;-16255.38;;;3.10;100.00
3590;BME280;1809;48.470;9.226;2023-02-11T08:57:16;-16264.53;;;3.43;100.00
3590;BME280;1809;48.470;9.226;2023-02-11T08:59:41;-16264.81;;;3.44;100.00
3590;BME280;1809;48.470;9.226;2023-02-11T09:02:10;-16272.69;;;3.72;100.00
3590;BME280;1809;48.470;9.226;2023-02-11T09:04:36;-16276.63;;;3.86;100.00
3590;BME280;1809;48.470;9.226;2023-02-11T09:07:01;-16281.00;;;4.02;100.00
3590;BME280;1809;48.470;9.226;2023-02-11T09:09:27;-16281.41;;;4.03;100.00
3590;BME280;1809;48.470;9.226;2023-02-11T09:11:52;-16279.16;;;3.95;100.00
3590;BME280;1809;48.470;9.226;2023-02-11T09:14:21;-16276.63;;;3.86;100.00
3590;BME280;1809;48.470;9.226;2023-02-11T09:16:47;-16270.16;;;3.63;100.00
3590;BME280;1809;48.470;9.226;2023-02-11T09:19:13;-16265.66;;;3.47;100.00
3590;BME280;1809;48.470;9.226;2023-02-11T09:21:38;-16266.22;;;3.49;100.00
3590;BME280;1809;48.470;9.226;2023-02-11T09:24:04;-16267.06;;;3.52;100.00
3590;BME280;1809;48.470;9.226;2023-02-11T09:26:32;-16268.88;;;3.58;100.00
3590;BME280;1809;48.470;9.226;2023-02-11T09:28:59;-16277.19;;;3.88;100.00
3590;BME280;1809;48.470;9.226;2023-02-11T09:31:26;-16283.09;;;4.09;100.00
3590;BME280;1809;48.470;9.226;2023-02-11T09:33:55;-16290.00;;;4.34;100.00
3590;BME280;1809;48.470;9.226;2023-02-11T09:36:25;-16299.44;;;4.68;100.00
3590;BME280;1809;48.470;9.226;2023-02-11T09:38:51;-16305.50;;;4.89;100.00
3590;BME280;1809;48.470;9.226;2023-02-11T09:43:56;-16320.25;;;5.42;100.00
3590;BME280;1809;48.470;9.226;2023-02-11T09:46:23;-16321.25;;;5.46;100.00
3590;BME280;1809;48.470;9.226;2023-02-11T09:48:52;-16327.03;;;5.67;100.00
3590;BME280;1809;48.470;9.226;2023-02-11T09:51:43;-16333.22;;;5.89;100.00
3590;BME280;1809;48.470;9.226;2023-02-11T09:54:20;-16330.97;;;5.81;100.00
3590;BME280;1809;48.470;9.226;2023-02-11T09:56:47;-16335.47;;;5.97;100.00
3590;BME280;1809;48.470;9.226;2023-02-11T09:59:14;-16334.34;;;5.93;100.00
3590;BME280;1809;48.470;9.226;2023-02-11T10:01:58;-16334.91;;;5.95;100.00
3590;BME280;1809;48.470;9.226;2023-02-11T10:07:20;-16344.19;;;6.28;100.00
3590;BME280;1809;48.470;9.226;2023-02-11T10:10:03;-16347.84;;;6.41;100.00
3590;BME280;1809;48.470;9.226;2023-02-11T10:12:57;-16350.66;;;6.52;100.00
3590;BME280;1809;48.470;9.226;2023-02-11T10:15:58;-16355.72;;;6.70;100.00
3590;BME280;1809;48.470;9.226;2023-02-11T10:21:30;-16367.13;;;7.11;100.00
3590;BME280;1809;48.470;9.226;2023-02-11T10:23:59;-16373.16;;;7.32;100.00
3590;BME280;1809;48.470;9.226;2023-02-11T10:26:29;-16377.81;;;7.49;100.00
3590;BME280;1809;48.470;9.226;2023-02-11T10:28:58;-16385.53;;;7.77;100.00
3590;BME280;1809;48.470;9.226;2023-02-11T10:31:37;-16392.84;;;8.03;100.00
3590;BME280;1809;48.470;9.226;2023-02-11T10:34:06;-16388.63;;;7.88;100.00
3590;BME280;1809;48.470;9.226;2023-02-11T10:36:35;-16384.97;;;7.75;100.00
3590;BME280;1809;48.470;9.226;2023-02-11T10:39:11;-16394.81;;;8.10;100.00
3590;BME280;1809;48.470;9.226;2023-02-11T10:41:42;-16393.97;;;8.07;100.00
3590;BME280;1809;48.470;9.226;2023-02-11T10:46:45;-16383.84;;;7.71;100.00
3590;BME280;1809;48.470;9.226;2023-02-11T10:49:35;-16382.72;;;7.67;100.00
3590;BME280;1809;48.470;9.226;2023-02-11T10:52:18;-16386.66;;;7.81;100.00
3590;BME280;1809;48.470;9.226;2023-02-11T10:54:58;-16379.63;;;7.55;100.00
3590;BME280;1809;48.470;9.226;2023-02-11T10:57:32;-16379.63;;;7.55;100.00
3590;BME280;1809;48.470;9.226;2023-02-11T11:00:22;-16377.38;;;7.47;100.00
3590;BME280;1809;48.470;9.226;2023-02-11T11:03:00;-16375.41;;;7.40;100.00
3590;BME280;1809;48.470;9.226;2023-02-11T11:05:45;-16372.19;;;7.29;100.00
3590;BME280;1809;48.470;9.226;2023-02-11T11:08:11;-16367.81;;;7.13;100.00
3590;BME280;1809;48.470;9.226;2023-02-11T11:10:42;-16364.44;;;7.01;100.00
3590;BME280;1809;48.470;9.226;2023-02-11T11:13:32;-16360.50;;;6.87;100.00
3590;BME280;1809;48.470;9.226;2023-02-11T11:18:44;-16366.97;;;7.10;100.00
3590;BME280;1809;48.470;9.226;2023-02-11T11:23:57;-16372.03;;;7.28;100.00
3590;BME280;1809;48.470;9.226;2023-02-11T11:26:46;-16372.88;;;7.31;100.00
3590;BME280;1809;48.470;9.226;2023-02-11T11:29:17;-16373.03;;;7.32;100.00
3590;BME280;1809;48.470;9.226;2023-02-11T11:31:53;-16375.13;;;7.39;100.00
3590;BME280;1809;48.470;9.226;2023-02-11T11:34:41;-16376.25;;;7.43;100.00
3590;BME280;1809;48.470;9.226;2023-02-11T11:37:19;-16377.66;;;7.48;100.00
3590;BME280;1809;48.470;9.226;2023-02-11T11:39:56;-16373.16;;;7.32;100.00
3590;BME280;1809;48.470;9.226;2023-02-11T11:42:34;-16376.81;;;7.45;100.00
3590;BME280;1809;48.470;9.226;2023-02-11T11:45:05;-16374.84;;;7.38;100.00
3590;BME280;1809;48.470;9.226;2023-02-11T11:50:41;-16376.41;;;7.44;100.00
3590;BME280;1809;48.470;9.226;2023-02-11T11:58:19;-16376.81;;;7.45;100.00
3590;BME280;1809;48.470;9.226;2023-02-11T12:10:16;-16381.88;;;7.64;100.00
3590;BME280;1809;48.470;9.226;2023-02-11T12:13:28;-16381.88;;;7.64;100.00
3590;BME280;1809;48.470;9.226;2023-02-11T12:21:32;-16383.28;;;7.69;100.00
3590;BME280;1809;48.470;9.226;2023-02-11T12:24:26;-16388.50;;;7.87;100.00
3590;BME280;1809;48.470;9.226;2023-02-11T12:27:06;-16388.34;;;7.87;100.00
3590;BME280;1809;48.470;9.226;2023-02-11T12:43:21;-16418.56;;;8.95;100.00
3590;BME280;1809;48.470;9.226;2023-02-11T12:45:59;-16419.69;;;8.99;100.00
3590;BME280;1809;48.470;9.226;2023-02-11T12:52:03;-16428.56;;;9.31;100.00
3590;BME280;1809;48.470;9.226;2023-02-11T12:55:19;-16425.59;;;9.21;100.00
3590;BME280;1809;48.470;9.226;2023-02-11T12:57:47;-16430.09;;;9.37;100.00
3590;BME280;1809;48.470;9.226;2023-02-11T13:05:43;-16440.06;;;9.72;100.00
3590;BME280;1809;48.470;9.226;2023-02-11T13:08:15;-16445.97;;;9.94;100.00
3590;BME280;1809;48.470;9.226;2023-02-11T13:10:44;-16451.47;;;10.13;100.00
3590;BME280;1809;48.470;9.226;2023-02-11T13:13:17;-16456.50;;;10.32;100.00
3590;BME280;1809;48.470;9.226;2023-02-11T13:15:50;-16454.69;;;10.25;100.00
3590;BME280;1809;48.470;9.226;2023-02-11T13:29:19;-16457.22;;;10.34;100.00
3590;BME280;1809;48.470;9.226;2023-02-11T13:32:25;-16452.16;;;10.16;100.00
3590;BME280;1809;48.470;9.226;2023-02-11T13:37:37;-16442.88;;;9.83;100.00
3590;BME280;1809;48.470;9.226;2023-02-11T13:45:46;-16424.63;;;9.17;100.00
3590;BME280;1809;48.470;9.226;2023-02-11T13:48:34;-16424.91;;;9.18;100.00
3590;BME280;1809;48.470;9.226;2023-02-11T13:51:04;-16420.13;;;9.01;100.00
3590;BME280;1809;48.470;9.226;2023-02-11T13:53:43;-16419.41;;;8.98;100.00
3590;BME280;1809;48.470;9.226;2023-02-11T13:59:00;-16420.69;;;9.03;100.00
3590;BME280;1809;48.470;9.226;2023-02-11T14:02:03;-16419.28;;;8.98;100.00
3590;BME280;1809;48.470;9.226;2023-02-11T14:05:23;-16424.63;;;9.17;100.00
3590;BME280;1809;48.470;9.226;2023-02-11T14:10:56;-16423.78;;;9.14;100.00
3590;BME280;1809;48.470;9.226;2023-02-11T14:15:48;-16427.56;;;9.28;100.00
3590;BME280;1809;48.470;9.226;2023-02-11T14:21:21;-16433.34;;;9.48;100.00
3590;BME280;1809;48.470;9.226;2023-02-11T14:23:49;-16432.78;;;9.46;100.00
3590;BME280;1809;48.470;9.226;2023-02-11T14:31:33;-16430.25;;;9.37;100.00
3590;BME280;1809;48.470;9.226;2023-02-11T14:34:34;-16424.63;;;9.17;100.00
3590;BME280;1809;48.470;9.226;2023-02-11T14:42:19;-16414.22;;;8.80;100.00
3590;BME280;1809;48.470;9.226;2023-02-11T14:44:48;-16415.06;;;8.83;100.00
3590;BME280;1809;48.470;9.226;2023-02-11T14:47:18;-16417.59;;;8.92;100.00
3590;BME280;1809;48.470;9.226;2023-02-11T14:49:44;-16415.34;;;8.84;100.00
3590;BME280;1809;48.470;9.226;2023-02-11T14:52:28;-16413.53;;;8.77;100.00
3590;BME280;1809;48.470;9.226;2023-02-11T14:55:18;-16415.75;;;8.85;100.00
3590;BME280;1809;48.470;9.226;2023-02-11T14:57:45;-16415.06;;;8.83;100.00
3590;BME280;1809;48.470;9.226;2023-02-11T15:00:20;-16415.63;;;8.85;100.00
3590;BME280;1809;48.470;9.226;2023-02-11T15:02:47;-16415.91;;;8.86;100.00
3590;BME280;1809;48.470;9.226;2023-02-11T15:05:18;-16417.03;;;8.90;100.00
3590;BME280;1809;48.470;9.226;2023-02-11T15:07:47;-16418.16;;;8.94;100.00
3590;BME280;1809;48.470;9.226;2023-02-11T15:10:42;-16416.59;;;8.88;100.00
3590;BME280;1809;48.470;9.226;2023-02-11T15:13:15;-16413.66;;;8.78;100.00
3590;BME280;1809;48.470;9.226;2023-02-11T15:15:43;-16416.75;;;8.89;100.00
3590;BME280;1809;48.470;9.226;2023-02-11T15:18:16;-16415.22;;;8.83;100.00
3590;BME280;1809;48.470;9.226;2023-02-11T15:20:46;-16412.81;;;8.75;100.00
3590;BME280;1809;48.470;9.226;2023-02-11T15:23:21;-16412.69;;;8.74;100.00
3590;BME280;1809;48.470;9.226;2023-02-11T15:25:47;-16408.75;;;8.60;100.00
3590;BME280;1809;48.470;9.226;2023-02-11T15:28:24;-16403.25;;;8.40;100.00
3590;BME280;1809;48.470;9.226;2023-02-11T15:31:16;-16402.00;;;8.36;100.00
3590;BME280;1809;48.470;9.226;2023-02-11T15:33:41;-16399.59;;;8.27;100.00
3590;BME280;1809;48.470;9.226;2023-02-11T15:36:10;-16396.78;;;8.17;100.00
3590;BME280;1809;48.470;9.226;2023-02-11T15:38:36;-16392.44;;;8.01;100.00
3590;BME280;1809;48.470;9.226;2023-02-11T15:41:03;-16393.13;;;8.04;100.00
3590;BME280;1809;48.470;9.226;2023-02-11T15:43:48;-16389.75;;;7.92;100.00
3590;BME280;1809;48.470;9.226;2023-02-11T15:46:19;-16386.09;;;7.79;100.00